sensor_id;sensor_type;location;lat;lon;timestamp;P1;durP1;ratioP1;P2;durP2;ratioP2
8086;SDS011;4086;54.412;9.980;2024-02-16T00:00:02;9.77;;;5.00;;
8086;SDS011;4086;54.412;9.980;2024-02-16T00:02:29;10.27;;;5.33;;
8086;SDS011;4086;54.412;9.980;2024-02-16T00:04:57;8.10;;;4.00;;
8086;SDS011;4086;54.412;9.980;2024-02-16T00:07:23;7.33;;;5.10;;
8086;SDS011;4086;54.412;9.980;2024-02-16T00:09:51;7.77;;;5.27;;
8086;SDS011;4086;54.412;9.980;2024-02-16T00:12:17;8.60;;;5.07;;
8086;SDS011;4086;54.412;9.980;2024-02-16T00:14:44;8.70;;;5.53;;
8086;SDS011;4086;54.412;9.980;2024-02-16T00:17:11;8.80;;;4.97;;
8086;SDS011;4086;54.412;9.980;2024-02-16T00:19:37;8.27;;;4.93;;
8086;SDS011;4086;54.412;9.980;2024-02-16T00:22:04;6.07;;;4.07;;
8086;SDS011;4086;54.412;9.980;2024-02-16T00:24:32;9.00;;;5.03;;
8086;SDS011;4086;54.412;9.980;2024-02-16T00:27:00;8.63;;;5.30;;
8086;SDS011;4086;54.412;9.980;2024-02-16T00:29:26;7.57;;;4.73;;
8086;SDS011;4086;54.412;9.980;2024-02-16T00:31:53;5.33;;;4.07;;
8086;SDS011;4086;54.412;9.980;2024-02-16T00:34:20;7.20;;;4.57;;
8086;SDS011;4086;54.412;9.980;2024-02-16T00:36:47;7.00;;;5.30;;
8086;SDS011;4086;54.412;9.980;2024-02-16T00:39:13;8.33;;;5.03;;
8086;SDS011;4086;54.412;9.980;2024-02-16T00:41:39;6.47;;;4.50;;
8086;SDS011;4086;54.412;9.980;2024-02-16T00:44:07;7.00;;;3.90;;
8086;SDS011;4086;54.412;9.980;2024-02-16T00:46:35;6.40;;;4.60;;
8086;SDS011;4086;54.412;9.980;2024-02-16T00:49:02;8.97;;;5.13;;
8086;SDS011;4086;54.412;9.980;2024-02-16T00:51:29;7.97;;;4.57;;
8086;SDS011;4086;54.412;9.980;2024-02-16T00:53:55;6.20;;;4.13;;
8086;SDS011;4086;54.412;9.980;2024-02-16T00:56:22;6.40;;;4.30;;
8086;SDS011;4086;54.412;9.980;2024-02-16T00:58:48;5.57;;;3.90;;
8086;SDS011;4086;54.412;9.980;2024-02-16T01:01:16;6.33;;;4.40;;
8086;SDS011;4086;54.412;9.980;2024-02-16T01:03:43;6.67;;;3.97;;
8086;SDS011;4086;54.412;9.980;2024-02-16T01:06:09;4.77;;;3.80;;
8086;SDS011;4086;54.412;9.980;2024-02-16T01:08:36;6.73;;;4.13;;
8086;SDS011;4086;54.412;9.980;2024-02-16T01:11:02;5.07;;;3.97;;
8086;SDS011;4086;54.412;9.980;2024-02-16T01:13:29;6.50;;;3.43;;
8086;SDS011;4086;54.412;9.980;2024-02-16T01:15:55;8.80;;;4.83;;
8086;SDS011;4086;54.412;9.980;2024-02-16T01:18:23;5.83;;;3.60;;
8086;SDS011;4086;54.412;9.980;2024-02-16T01:20:49;6.57;;;3.80;;
8086;SDS011;4086;54.412;9.980;2024-02-16T01:23:16;5.53;;;3.53;;
8086;SDS011;4086;54.412;9.980;2024-02-16T01:25:42;4.27;;;3.30;;
8086;SDS011;4086;54.412;9.980;2024-02-16T01:28:09;5.53;;;3.97;;
8086;SDS011;4086;54.412;9.980;2024-02-16T01:30:37;6.00;;;4.00;;
8086;SDS011;4086;54.412;9.980;2024-02-16T01:33:04;7.37;;;4.40;;
8086;SDS011;4086;54.412;9.980;2024-02-16T01:35:32;5.93;;;4.20;;
8086;SDS011;4086;54.412;9.980;2024-02-16T01:37:58;5.90;;;3.67;;
8086;SDS011;4086;54.412;9.980;2024-02-16T01:40:26;5.10;;;4.10;;
8086;SDS011;4086;54.412;9.980;2024-02-16T01:42:53;6.50;;;3.73;;
8086;SDS011;4086;54.412;9.980;2024-02-16T01:45:19;6.80;;;3.60;;
8086;SDS011;4086;54.412;9.980;2024-02-16T01:47:47;6.63;;;3.63;;
8086;SDS011;4086;54.412;9.980;2024-02-16T01:50:16;5.60;;;3.40;;
8086;SDS011;4086;54.412;9.980;2024-02-16T01:52:45;5.90;;;3.57;;
8086;SDS011;4086;54.412;9.980;2024-02-16T01:55:12;5.97;;;4.57;;
8086;SDS011;4086;54.412;9.980;2024-02-16T01:57:39;4.00;;;2.97;;
8086;SDS011;4086;54.412;9.980;2024-02-16T02:00:07;5.03;;;3.47;;
8086;SDS011;4086;54.412;9.980;2024-02-16T02:02:33;5.07;;;3.13;;
8086;SDS011;4086;54.412;9.980;2024-02-16T02:05:00;4.17;;;3.00;;
8086;SDS011;4086;54.412;9.980;2024-02-16T02:07:27;4.40;;;2.93;;
8086;SDS011;4086;54.412;9.980;2024-02-16T02:09:55;3.17;;;2.57;;
8086;SDS011;4086;54.412;9.980;2024-02-16T02:12:21;4.70;;;2.73;;
8086;SDS011;4086;54.412;9.980;2024-02-16T02:14:48;3.73;;;3.03;;
8086;SDS011;4086;54.412;9.980;2024-02-16T02:17:14;4.20;;;2.47;;
8086;SDS011;4086;54.412;9.980;2024-02-16T02:19:41;3.00;;;2.70;;
8086;SDS011;4086;54.412;9.980;2024-02-16T02:22:13;3.23;;;2.67;;
8086;SDS011;4086;54.412;9.980;2024-02-16T02:24:40;3.87;;;2.90;;
8086;SDS011;4086;54.412;9.980;2024-02-16T02:27:07;3.63;;;2.90;;
8086;SDS011;4086;54.412;9.980;2024-02-16T02:29:33;3.47;;;2.83;;
8086;SDS011;4086;54.412;9.980;2024-02-16T02:31:59;3.27;;;2.53;;
8086;SDS011;4086;54.412;9.980;2024-02-16T02:34:26;3.27;;;2.40;;
8086;SDS011;4086;54.412;9.980;2024-02-16T02:36:52;3.90;;;3.00;;
8086;SDS011;4086;54.412;9.980;2024-02-16T02:39:20;7.50;;;2.43;;
8086;SDS011;4086;54.412;9.980;2024-02-16T02:41:47;3.90;;;2.47;;
8086;SDS011;4086;54.412;9.980;2024-02-16T02:44:13;6.40;;;2.67;;
8086;SDS011;4086;54.412;9.980;2024-02-16T02:46:40;2.77;;;2.57;;
8086;SDS011;4086;54.412;9.980;2024-02-16T02:49:06;4.23;;;2.63;;
8086;SDS011;4086;54.412;9.980;2024-02-16T02:51:33;4.67;;;2.83;;
8086;SDS011;4086;54.412;9.980;2024-02-16T02:53:59;3.70;;;2.73;;
8086;SDS011;4086;54.412;9.980;2024-02-16T02:56:27;2.93;;;2.40;;
8086;SDS011;4086;54.412;9.980;2024-02-16T02:58:53;2.67;;;1.93;;
8086;SDS011;4086;54.412;9.980;2024-02-16T03:01:20;2.60;;;2.27;;
8086;SDS011;4086;54.412;9.980;2024-02-16T03:03:47;3.87;;;2.40;;
8086;SDS011;4086;54.412;9.980;2024-02-16T03:06:16;2.90;;;2.43;;
8086;SDS011;4086;54.412;9.980;2024-02-16T03:08:43;2.60;;;2.40;;
8086;SDS011;4086;54.412;9.980;2024-02-16T03:11:10;3.63;;;1.93;;
8086;SDS011;4086;54.412;9.980;2024-02-16T03:13:38;3.27;;;2.63;;
8086;SDS011;4086;54.412;9.980;2024-02-16T03:16:05;2.47;;;2.13;;
8086;SDS011;4086;54.412;9.980;2024-02-16T03:18:31;2.43;;;2.00;;
8086;SDS011;4086;54.412;9.980;2024-02-16T03:20:59;2.40;;;2.20;;
8086;SDS011;4086;54.412;9.980;2024-02-16T03:23:25;3.03;;;2.27;;
8086;SDS011;4086;54.412;9.980;2024-02-16T03:25:52;2.90;;;2.40;;
8086;SDS011;4086;54.412;9.980;2024-02-16T03:28:18;1.97;;;1.87;;
8086;SDS011;4086;54.412;9.980;2024-02-16T03:30:46;2.50;;;2.07;;
8086;SDS011;4086;54.412;9.980;2024-02-16T03:33:13;2.03;;;1.80;;
8086;SDS011;4086;54.412;9.980;2024-02-16T03:35:39;1.90;;;1.70;;
8086;SDS011;4086;54.412;9.980;2024-02-16T03:38:06;1.90;;;1.80;;
8086;SDS011;4086;54.412;9.980;2024-02-16T03:40:33;2.37;;;2.17;;
8086;SDS011;4086;54.412;9.980;2024-02-16T03:42:59;2.00;;;1.90;;
8086;SDS011;4086;54.412;9.980;2024-02-16T03:45:26;1.70;;;1.60;;
8086;SDS011;4086;54.412;9.980;2024-02-16T03:47:54;1.93;;;1.77;;
8086;SDS011;4086;54.412;9.980;2024-02-16T03:50:20;2.07;;;1.73;;
8086;SDS011;4086;54.412;9.980;2024-02-16T03:52:47;1.80;;;1.70;;
8086;SDS011;4086;54.412;9.980;2024-02-16T03:55:13;1.93;;;1.40;;
8086;SDS011;4086;54.412;9.980;2024-02-16T03:57:40;4.90;;;2.10;;
8086;SDS011;4086;54.412;9.980;2024-02-16T04:00:07;2.30;;;1.80;;
8086;SDS011;4086;54.412;9.980;2024-02-16T04:02:34;1.83;;;1.67;;
8086;SDS011;4086;54.412;9.980;2024-02-16T04:05:02;2.10;;;1.87;;
8086;SDS011;4086;54.412;9.980;2024-02-16T04:07:29;1.53;;;1.43;;
8086;SDS011;4086;54.412;9.980;2024-02-16T04:09:55;1.60;;;1.50;;
8086;SDS011;4086;54.412;9.980;2024-02-16T04:12:22;1.90;;;1.80;;
8086;SDS011;4086;54.412;9.980;2024-02-16T04:14:48;2.07;;;1.90;;
8086;SDS011;4086;54.412;9.980;2024-02-16T04:17:15;2.23;;;1.87;;
8086;SDS011;4086;54.412;9.980;2024-02-16T04:19:42;2.20;;;1.50;;
8086;SDS011;4086;54.412;9.980;2024-02-16T04:22:10;3.43;;;1.80;;
8086;SDS011;4086;54.412;9.980;2024-02-16T04:24:36;3.60;;;1.53;;
8086;SDS011;4086;54.412;9.980;2024-02-16T04:27:03;1.20;;;1.20;;
8086;SDS011;4086;54.412;9.980;2024-02-16T04:29:29;1.53;;;1.43;;
8086;SDS011;4086;54.412;9.980;2024-02-16T04:31:55;1.90;;;1.70;;
8086;SDS011;4086;54.412;9.980;2024-02-16T04:34:22;1.90;;;1.60;;
8086;SDS011;4086;54.412;9.980;2024-02-16T04:36:48;1.97;;;1.83;;
8086;SDS011;4086;54.412;9.980;2024-02-16T04:39:16;1.70;;;1.60;;
8086;SDS011;4086;54.412;9.980;2024-02-16T04:41:44;1.50;;;1.40;;
8086;SDS011;4086;54.412;9.980;2024-02-16T04:44:11;1.70;;;1.60;;
8086;SDS011;4086;54.412;9.980;2024-02-16T04:46:37;3.53;;;1.93;;
8086;SDS011;4086;54.412;9.980;2024-02-16T04:49:04;1.70;;;1.60;;
8086;SDS011;4086;54.412;9.980;2024-02-16T04:51:31;1.57;;;1.47;;
8086;SDS011;4086;54.412;9.980;2024-02-16T04:53:57;1.33;;;1.23;;
8086;SDS011;4086;54.412;9.980;2024-02-16T04:56:25;2.00;;;1.80;;
8086;SDS011;4086;54.412;9.980;2024-02-16T04:58:51;3.40;;;1.57;;
8086;SDS011;4086;54.412;9.980;2024-02-16T05:01:18;1.80;;;1.70;;
8086;SDS011;4086;54.412;9.980;2024-02-16T05:03:44;1.57;;;1.27;;
8086;SDS011;4086;54.412;9.980;2024-02-16T05:06:10;1.43;;;1.30;;
8086;SDS011;4086;54.412;9.980;2024-02-16T05:08:37;1.73;;;1.63;;
8086;SDS011;4086;54.412;9.980;2024-02-16T05:11:03;1.57;;;1.30;;
8086;SDS011;4086;54.412;9.980;2024-02-16T05:13:35;1.60;;;1.50;;
8086;SDS011;4086;54.412;9.980;2024-02-16T05:16:02;1.30;;;1.20;;
8086;SDS011;4086;54.412;9.980;2024-02-16T05:18:29;2.20;;;1.77;;
8086;SDS011;4086;54.412;9.980;2024-02-16T05:20:56;2.90;;;1.57;;
8086;SDS011;4086;54.412;9.980;2024-02-16T05:23:23;1.73;;;1.63;;
8086;SDS011;4086;54.412;9.980;2024-02-16T05:25:49;1.33;;;1.23;;
8086;SDS011;4086;54.412;9.980;2024-02-16T05:28:15;1.83;;;1.73;;
8086;SDS011;4086;54.412;9.980;2024-02-16T05:30:44;2.40;;;1.50;;
8086;SDS011;4086;54.412;9.980;2024-02-16T05:33:10;1.93;;;1.63;;
8086;SDS011;4086;54.412;9.980;2024-02-16T05:35:39;3.30;;;1.20;;
8086;SDS011;4086;54.412;9.980;2024-02-16T05:38:05;1.50;;;1.40;;
8086;SDS011;4086;54.412;9.980;2024-02-16T05:40:45;1.53;;;1.20;;
8086;SDS011;4086;54.412;9.980;2024-02-16T05:43:18;2.70;;;1.63;;
8086;SDS011;4086;54.412;9.980;2024-02-16T05:45:46;1.50;;;1.37;;
8086;SDS011;4086;54.412;9.980;2024-02-16T05:48:12;1.60;;;1.50;;
8086;SDS011;4086;54.412;9.980;2024-02-16T05:50:39;1.60;;;1.50;;
8086;SDS011;4086;54.412;9.980;2024-02-16T05:53:05;2.83;;;2.07;;
8086;SDS011;4086;54.412;9.980;2024-02-16T05:55:32;1.53;;;1.30;;
8086;SDS011;4086;54.412;9.980;2024-02-16T05:57:59;2.70;;;1.60;;
8086;SDS011;4086;54.412;9.980;2024-02-16T06:00:25;1.53;;;1.43;;
8086;SDS011;4086;54.412;9.980;2024-02-16T06:02:53;1.33;;;1.23;;
8086;SDS011;4086;54.412;9.980;2024-02-16T06:05:20;7.07;;;1.73;;
8086;SDS011;4086;54.412;9.980;2024-02-16T06:07:46;1.80;;;1.40;;
8086;SDS011;4086;54.412;9.980;2024-02-16T06:10:13;1.13;;;1.07;;
8086;SDS011;4086;54.412;9.980;2024-02-16T06:12:39;1.50;;;1.33;;
8086;SDS011;4086;54.412;9.980;2024-02-16T06:15:06;1.40;;;1.13;;
8086;SDS011;4086;54.412;9.980;2024-02-16T06:17:32;2.03;;;1.30;;
8086;SDS011;4086;54.412;9.980;2024-02-16T06:20:00;1.67;;;1.37;;
8086;SDS011;4086;54.412;9.980;2024-02-16T06:22:28;2.57;;;1.53;;
8086;SDS011;4086;54.412;9.980;2024-02-16T06:24:56;4.67;;;1.30;;
8086;SDS011;4086;54.412;9.980;2024-02-16T06:27:23;1.23;;;1.20;;
8086;SDS011;4086;54.412;9.980;2024-02-16T06:29:49;3.50;;;1.37;;
8086;SDS011;4086;54.412;9.980;2024-02-16T06:32:16;1.50;;;1.40;;
8086;SDS011;4086;54.412;9.980;2024-02-16T06:34:43;3.50;;;1.50;;
8086;SDS011;4086;54.412;9.980;2024-02-16T06:37:12;2.47;;;1.50;;
8086;SDS011;4086;54.412;9.980;2024-02-16T06:39:38;3.03;;;1.97;;
8086;SDS011;4086;54.412;9.980;2024-02-16T06:42:05;1.83;;;1.57;;
8086;SDS011;4086;54.412;9.980;2024-02-16T06:44:31;2.63;;;1.73;;
8086;SDS011;4086;54.412;9.980;2024-02-16T06:46:58;2.53;;;2.00;;
8086;SDS011;4086;54.412;9.980;2024-02-16T06:49:24;1.43;;;1.33;;
8086;SDS011;4086;54.412;9.980;2024-02-16T06:51:51;1.57;;;1.47;;
8086;SDS011;4086;54.412;9.980;2024-02-16T06:54:19;2.27;;;1.80;;
8086;SDS011;4086;54.412;9.980;2024-02-16T06:56:45;2.37;;;1.77;;
8086;SDS011;4086;54.412;9.980;2024-02-16T06:59:11;1.57;;;1.47;;
8086;SDS011;4086;54.412;9.980;2024-02-16T07:01:38;1.87;;;1.77;;
8086;SDS011;4086;54.412;9.980;2024-02-16T07:04:05;1.67;;;1.57;;
8086;SDS011;4086;54.412;9.980;2024-02-16T07:06:34;1.73;;;1.53;;
8086;SDS011;4086;54.412;9.980;2024-02-16T07:09:00;2.77;;;1.80;;
8086;SDS011;4086;54.412;9.980;2024-02-16T07:11:29;1.60;;;1.50;;
8086;SDS011;4086;54.412;9.980;2024-02-16T07:13:56;1.57;;;1.47;;
8086;SDS011;4086;54.412;9.980;2024-02-16T07:16:24;1.47;;;1.47;;
8086;SDS011;4086;54.412;9.980;2024-02-16T07:18:50;1.00;;;1.00;;
8086;SDS011;4086;54.412;9.980;2024-02-16T07:21:17;1.50;;;1.40;;
8086;SDS011;4086;54.412;9.980;2024-02-16T07:23:45;1.30;;;1.30;;
8086;SDS011;4086;54.412;9.980;2024-02-16T07:26:12;1.40;;;1.30;;
8086;SDS011;4086;54.412;9.980;2024-02-16T07:28:40;1.57;;;1.47;;
8086;SDS011;4086;54.412;9.980;2024-02-16T07:31:07;1.73;;;1.30;;
8086;SDS011;4086;54.412;9.980;2024-02-16T07:33:33;2.17;;;1.40;;
8086;SDS011;4086;54.412;9.980;2024-02-16T07:35:59;1.20;;;1.10;;
8086;SDS011;4086;54.412;9.980;2024-02-16T07:38:26;1.60;;;1.50;;
8086;SDS011;4086;54.412;9.980;2024-02-16T07:40:53;1.70;;;1.60;;
8086;SDS011;4086;54.412;9.980;2024-02-16T07:43:19;2.63;;;1.40;;
8086;SDS011;4086;54.412;9.980;2024-02-16T07:45:48;1.40;;;1.13;;
8086;SDS011;4086;54.412;9.980;2024-02-16T07:48:14;1.30;;;1.20;;
8086;SDS011;4086;54.412;9.980;2024-02-16T07:50:41;1.90;;;1.50;;
8086;SDS011;4086;54.412;9.980;2024-02-16T07:53:07;1.50;;;1.40;;
8086;SDS011;4086;54.412;9.980;2024-02-16T07:55:35;1.63;;;1.50;;
8086;SDS011;4086;54.412;9.980;2024-02-16T07:58:03;1.53;;;1.43;;
8086;SDS011;4086;54.412;9.980;2024-02-16T08:00:29;2.20;;;1.53;;
8086;SDS011;4086;54.412;9.980;2024-02-16T08:02:57;1.53;;;1.40;;
8086;SDS011;4086;54.412;9.980;2024-02-16T08:05:24;1.87;;;1.70;;
8086;SDS011;4086;54.412;9.980;2024-02-16T08:07:51;4.03;;;1.40;;
8086;SDS011;4086;54.412;9.980;2024-02-16T08:10:18;1.07;;;1.07;;
8086;SDS011;4086;54.412;9.980;2024-02-16T08:12:46;1.63;;;1.43;;
8086;SDS011;4086;54.412;9.980;2024-02-16T08:15:12;1.70;;;1.60;;
8086;SDS011;4086;54.412;9.980;2024-02-16T08:17:39;1.30;;;1.20;;
8086;SDS011;4086;54.412;9.980;2024-02-16T08:20:08;1.30;;;1.17;;
8086;SDS011;4086;54.412;9.980;2024-02-16T08:22:35;2.03;;;1.10;;
8086;SDS011;4086;54.412;9.980;2024-02-16T08:25:01;1.77;;;1.63;;
8086;SDS011;4086;54.412;9.980;2024-02-16T08:27:27;2.73;;;1.73;;
8086;SDS011;4086;54.412;9.980;2024-02-16T08:29:57;1.40;;;1.30;;
8086;SDS011;4086;54.412;9.980;2024-02-16T08:32:24;4.63;;;1.50;;
8086;SDS011;4086;54.412;9.980;2024-02-16T08:34:51;2.80;;;1.30;;
8086;SDS011;4086;54.412;9.980;2024-02-16T08:37:19;1.00;;;1.00;;
8086;SDS011;4086;54.412;9.980;2024-02-16T08:39:46;1.67;;;1.57;;
8086;SDS011;4086;54.412;9.980;2024-02-16T08:42:12;1.00;;;1.00;;
8086;SDS011;4086;54.412;9.980;2024-02-16T08:44:39;1.50;;;1.40;;
8086;SDS011;4086;54.412;9.980;2024-02-16T08:47:07;1.97;;;1.40;;
8086;SDS011;4086;54.412;9.980;2024-02-16T08:49:34;2.23;;;1.60;;
8086;SDS011;4086;54.412;9.980;2024-02-16T08:52:01;1.47;;;1.37;;
8086;SDS011;4086;54.412;9.980;2024-02-16T08:54:29;3.70;;;1.50;;
8086;SDS011;4086;54.412;9.980;2024-02-16T08:56:55;6.43;;;1.50;;
8086;SDS011;4086;54.412;9.980;2024-02-16T08:59:22;1.33;;;1.23;;
8086;SDS011;4086;54.412;9.980;2024-02-16T09:01:48;1.50;;;1.40;;
8086;SDS011;4086;54.412;9.980;2024-02-16T09:04:15;1.97;;;1.47;;
8086;SDS011;4086;54.412;9.980;2024-02-16T09:06:41;2.57;;;1.83;;
8086;SDS011;4086;54.412;9.980;2024-02-16T09:09:08;1.43;;;1.33;;
8086;SDS011;4086;54.412;9.980;2024-02-16T09:11:36;1.57;;;1.47;;
8086;SDS011;4086;54.412;9.980;2024-02-16T09:14:03;2.03;;;1.80;;
8086;SDS011;4086;54.412;9.980;2024-02-16T09:16:29;1.20;;;1.13;;
8086;SDS011;4086;54.412;9.980;2024-02-16T09:18:57;2.03;;;1.40;;
8086;SDS011;4086;54.412;9.980;2024-02-16T09:21:24;1.60;;;1.50;;
8086;SDS011;4086;54.412;9.980;2024-02-16T09:23:52;1.10;;;1.10;;
8086;SDS011;4086;54.412;9.980;2024-02-16T09:26:18;1.23;;;1.13;;
8086;SDS011;4086;54.412;9.980;2024-02-16T09:28:47;1.30;;;1.20;;
8086;SDS011;4086;54.412;9.980;2024-02-16T09:31:14;1.67;;;1.57;;
8086;SDS011;4086;54.412;9.980;2024-02-16T09:33:40;2.23;;;1.50;;
8086;SDS011;4086;54.412;9.980;2024-02-16T09:36:07;1.37;;;1.10;;
8086;SDS011;4086;54.412;9.980;2024-02-16T09:38:34;3.00;;;1.70;;
8086;SDS011;4086;54.412;9.980;2024-02-16T09:41:01;1.20;;;1.20;;
8086;SDS011;4086;54.412;9.980;2024-02-16T09:43:28;1.07;;;1.03;;
8086;SDS011;4086;54.412;9.980;2024-02-16T09:45:57;1.57;;;1.47;;
8086;SDS011;4086;54.412;9.980;2024-02-16T09:48:26;1.60;;;1.47;;
8086;SDS011;4086;54.412;9.980;2024-02-16T09:50:53;1.17;;;1.07;;
8086;SDS011;4086;54.412;9.980;2024-02-16T09:53:20;1.10;;;1.10;;
8086;SDS011;4086;54.412;9.980;2024-02-16T09:55:47;1.83;;;1.37;;
8086;SDS011;4086;54.412;9.980;2024-02-16T09:58:14;1.30;;;1.20;;
8086;SDS011;4086;54.412;9.980;2024-02-16T10:00:47;1.80;;;1.40;;
8086;SDS011;4086;54.412;9.980;2024-02-16T10:03:22;1.23;;;1.13;;
8086;SDS011;4086;54.412;9.980;2024-02-16T10:05:49;1.87;;;1.50;;
8086;SDS011;4086;54.412;9.980;2024-02-16T10:08:16;2.63;;;1.20;;
8086;SDS011;4086;54.412;9.980;2024-02-16T10:10:42;1.73;;;1.03;;
8086;SDS011;4086;54.412;9.980;2024-02-16T10:13:09;2.70;;;1.40;;
8086;SDS011;4086;54.412;9.980;2024-02-16T10:15:36;1.70;;;1.60;;
8086;SDS011;4086;54.412;9.980;2024-02-16T10:18:03;1.03;;;1.03;;
8086;SDS011;4086;54.412;9.980;2024-02-16T10:20:32;1.10;;;1.10;;
8086;SDS011;4086;54.412;9.980;2024-02-16T10:23:03;1.47;;;1.30;;
8086;SDS011;4086;54.412;9.980;2024-02-16T10:25:32;1.63;;;1.30;;
8086;SDS011;4086;54.412;9.980;2024-02-16T10:27:59;1.60;;;1.33;;
8086;SDS011;4086;54.412;9.980;2024-02-16T10:30:29;1.27;;;1.17;;
8086;SDS011;4086;54.412;9.980;2024-02-16T10:32:56;1.00;;;1.00;;
8086;SDS011;4086;54.412;9.980;2024-02-16T10:35:23;0.83;;;0.83;;
8086;SDS011;4086;54.412;9.980;2024-02-16T10:37:52;2.23;;;1.30;;
8086;SDS011;4086;54.412;9.980;2024-02-16T10:40:20;1.27;;;1.03;;
8086;SDS011;4086;54.412;9.980;2024-02-16T10:42:49;2.53;;;1.30;;
8086;SDS011;4086;54.412;9.980;2024-02-16T10:45:15;0.97;;;0.97;;
8086;SDS011;4086;54.412;9.980;2024-02-16T10:47:43;3.67;;;1.20;;
8086;SDS011;4086;54.412;9.980;2024-02-16T10:50:10;1.13;;;1.10;;
8086;SDS011;4086;54.412;9.980;2024-02-16T10:52:36;4.50;;;1.33;;
8086;SDS011;4086;54.412;9.980;2024-02-16T10:55:06;1.10;;;1.10;;
8086;SDS011;4086;54.412;9.980;2024-02-16T10:57:35;1.33;;;1.13;;
8086;SDS011;4086;54.412;9.980;2024-02-16T11:00:06;1.07;;;1.07;;
8086;SDS011;4086;54.412;9.980;2024-02-16T11:05:20;1.23;;;1.10;;
8086;SDS011;4086;54.412;9.980;2024-02-16T11:07:59;2.33;;;1.30;;
8086;SDS011;4086;54.412;9.980;2024-02-16T11:10:27;1.33;;;1.23;;
8086;SDS011;4086;54.412;9.980;2024-02-16T11:12:54;1.17;;;1.10;;
8086;SDS011;4086;54.412;9.980;2024-02-16T11:15:27;0.70;;;0.70;;
8086;SDS011;4086;54.412;9.980;2024-02-16T11:17:55;1.90;;;0.97;;
8086;SDS011;4086;54.412;9.980;2024-02-16T11:20:23;1.10;;;1.10;;
8086;SDS011;4086;54.412;9.980;2024-02-16T11:22:50;1.40;;;1.30;;
8086;SDS011;4086;54.412;9.980;2024-02-16T11:25:17;1.20;;;1.20;;
8086;SDS011;4086;54.412;9.980;2024-02-16T11:27:44;2.23;;;1.40;;
8086;SDS011;4086;54.412;9.980;2024-02-16T11:30:11;1.00;;;1.00;;
8086;SDS011;4086;54.412;9.980;2024-02-16T11:32:37;1.40;;;1.30;;
8086;SDS011;4086;54.412;9.980;2024-02-16T11:35:06;2.60;;;1.40;;
8086;SDS011;4086;54.412;9.980;2024-02-16T11:37:32;2.03;;;1.43;;
8086;SDS011;4086;54.412;9.980;2024-02-16T11:39:59;1.33;;;1.23;;
8086;SDS011;4086;54.412;9.980;2024-02-16T11:42:25;2.63;;;1.10;;
8086;SDS011;4086;54.412;9.980;2024-02-16T11:44:54;2.97;;;1.17;;
8086;SDS011;4086;54.412;9.980;2024-02-16T11:47:21;3.07;;;1.10;;
8086;SDS011;4086;54.412;9.980;2024-02-16T11:49:59;1.43;;;1.20;;
8086;SDS011;4086;54.412;9.980;2024-02-16T11:52:26;1.30;;;1.20;;
8086;SDS011;4086;54.412;9.980;2024-02-16T11:54:52;1.30;;;1.20;;
8086;SDS011;4086;54.412;9.980;2024-02-16T11:57:18;1.20;;;1.10;;
8086;SDS011;4086;54.412;9.980;2024-02-16T11:59:45;2.93;;;1.40;;
8086;SDS011;4086;54.412;9.980;2024-02-16T12:02:17;1.53;;;1.40;;
8086;SDS011;4086;54.412;9.980;2024-02-16T12:04:45;1.30;;;1.20;;
8086;SDS011;4086;54.412;9.980;2024-02-16T12:07:12;1.07;;;1.00;;
8086;SDS011;4086;54.412;9.980;2024-02-16T12:09:39;2.50;;;1.70;;
8086;SDS011;4086;54.412;9.980;2024-02-16T12:12:05;1.80;;;1.70;;
8086;SDS011;4086;54.412;9.980;2024-02-16T12:14:32;1.40;;;1.30;;
8086;SDS011;4086;54.412;9.980;2024-02-16T12:16:59;2.53;;;1.57;;
8086;SDS011;4086;54.412;9.980;2024-02-16T12:19:26;1.13;;;1.13;;
8086;SDS011;4086;54.412;9.980;2024-02-16T12:21:53;1.77;;;1.47;;
8086;SDS011;4086;54.412;9.980;2024-02-16T12:24:22;2.13;;;1.33;;
8086;SDS011;4086;54.412;9.980;2024-02-16T12:26:49;3.27;;;1.17;;
8086;SDS011;4086;54.412;9.980;2024-02-16T12:29:16;1.13;;;1.03;;
8086;SDS011;4086;54.412;9.980;2024-02-16T12:31:43;3.73;;;1.43;;
8086;SDS011;4086;54.412;9.980;2024-02-16T12:34:10;1.50;;;1.40;;
8086;SDS011;4086;54.412;9.980;2024-02-16T12:36:40;1.40;;;1.30;;
8086;SDS011;4086;54.412;9.980;2024-02-16T12:39:07;1.47;;;1.37;;
8086;SDS011;4086;54.412;9.980;2024-02-16T12:41:34;1.60;;;1.50;;
8086;SDS011;4086;54.412;9.980;2024-02-16T12:44:02;1.33;;;1.30;;
8086;SDS011;4086;54.412;9.980;2024-02-16T12:46:29;2.13;;;1.67;;
8086;SDS011;4086;54.412;9.980;2024-02-16T12:48:55;1.80;;;1.67;;
8086;SDS011;4086;54.412;9.980;2024-02-16T12:51:21;1.50;;;1.40;;
8086;SDS011;4086;54.412;9.980;2024-02-16T12:53:49;1.83;;;1.60;;
8086;SDS011;4086;54.412;9.980;2024-02-16T12:56:16;3.17;;;2.27;;
8086;SDS011;4086;54.412;9.980;2024-02-16T12:58:42;1.87;;;1.77;;
8086;SDS011;4086;54.412;9.980;2024-02-16T13:01:08;2.33;;;1.60;;
8086;SDS011;4086;54.412;9.980;2024-02-16T13:03:36;1.73;;;1.57;;
8086;SDS011;4086;54.412;9.980;2024-02-16T13:06:03;1.93;;;1.77;;
8086;SDS011;4086;54.412;9.980;2024-02-16T13:08:30;1.60;;;1.50;;
8086;SDS011;4086;54.412;9.980;2024-02-16T13:10:58;1.63;;;1.57;;
8086;SDS011;4086;54.412;9.980;2024-02-16T13:13:24;2.60;;;2.20;;
8086;SDS011;4086;54.412;9.980;2024-02-16T13:15:51;1.60;;;1.50;;
8086;SDS011;4086;54.412;9.980;2024-02-16T13:18:17;1.80;;;1.70;;
8086;SDS011;4086;54.412;9.980;2024-02-16T13:20:43;2.60;;;1.90;;
8086;SDS011;4086;54.412;9.980;2024-02-16T13:23:12;3.43;;;2.17;;
8086;SDS011;4086;54.412;9.980;2024-02-16T13:25:38;3.50;;;1.97;;
8086;SDS011;4086;54.412;9.980;2024-02-16T13:28:06;3.37;;;2.00;;
8086;SDS011;4086;54.412;9.980;2024-02-16T13:30:32;3.13;;;1.87;;
8086;SDS011;4086;54.412;9.980;2024-02-16T13:32:59;3.47;;;2.53;;
8086;SDS011;4086;54.412;9.980;2024-02-16T13:35:25;2.93;;;2.23;;
8086;SDS011;4086;54.412;9.980;2024-02-16T13:37:53;2.03;;;1.90;;
8086;SDS011;4086;54.412;9.980;2024-02-16T13:40:20;2.07;;;1.90;;
8086;SDS011;4086;54.412;9.980;2024-02-16T13:42:46;8.93;;;2.57;;
8086;SDS011;4086;54.412;9.980;2024-02-16T13:45:14;3.10;;;2.40;;
8086;SDS011;4086;54.412;9.980;2024-02-16T13:47:40;2.03;;;1.93;;
8086;SDS011;4086;54.412;9.980;2024-02-16T13:50:07;2.30;;;2.10;;
8086;SDS011;4086;54.412;9.980;2024-02-16T13:52:34;2.53;;;2.07;;
8086;SDS011;4086;54.412;9.980;2024-02-16T13:55:00;2.87;;;2.07;;
8086;SDS011;4086;54.412;9.980;2024-02-16T13:57:27;2.23;;;2.03;;
8086;SDS011;4086;54.412;9.980;2024-02-16T13:59:53;4.40;;;2.20;;
8086;SDS011;4086;54.412;9.980;2024-02-16T14:02:21;3.20;;;2.20;;
8086;SDS011;4086;54.412;9.980;2024-02-16T14:04:47;2.83;;;2.10;;
8086;SDS011;4086;54.412;9.980;2024-02-16T14:07:16;2.33;;;2.00;;
8086;SDS011;4086;54.412;9.980;2024-02-16T14:09:42;3.67;;;2.23;;
8086;SDS011;4086;54.412;9.980;2024-02-16T14:12:08;2.03;;;1.83;;
8086;SDS011;4086;54.412;9.980;2024-02-16T14:14:36;2.43;;;2.23;;
8086;SDS011;4086;54.412;9.980;2024-02-16T14:17:03;3.13;;;2.17;;
8086;SDS011;4086;54.412;9.980;2024-02-16T14:19:31;3.77;;;2.67;;
8086;SDS011;4086;54.412;9.980;2024-02-16T14:21:59;2.90;;;2.63;;
8086;SDS011;4086;54.412;9.980;2024-02-16T14:24:25;2.80;;;2.27;;
8086;SDS011;4086;54.412;9.980;2024-02-16T14:26:51;3.60;;;2.60;;
8086;SDS011;4086;54.412;9.980;2024-02-16T14:29:18;3.30;;;2.33;;
8086;SDS011;4086;54.412;9.980;2024-02-16T14:31:44;4.03;;;2.30;;
8086;SDS011;4086;54.412;9.980;2024-02-16T14:34:11;2.90;;;2.10;;
8086;SDS011;4086;54.412;9.980;2024-02-16T14:36:38;2.50;;;2.30;;
8086;SDS011;4086;54.412;9.980;2024-02-16T14:39:05;2.40;;;2.20;;
8086;SDS011;4086;54.412;9.980;2024-02-16T14:41:31;3.20;;;2.60;;
8086;SDS011;4086;54.412;9.980;2024-02-16T14:43:57;3.87;;;2.97;;
8086;SDS011;4086;54.412;9.980;2024-02-16T14:46:25;6.43;;;2.43;;
8086;SDS011;4086;54.412;9.980;2024-02-16T14:48:52;3.47;;;3.17;;
8086;SDS011;4086;54.412;9.980;2024-02-16T14:51:18;3.43;;;2.93;;
8086;SDS011;4086;54.412;9.980;2024-02-16T14:53:46;3.50;;;3.07;;
8086;SDS011;4086;54.412;9.980;2024-02-16T14:56:13;2.10;;;2.00;;
8086;SDS011;4086;54.412;9.980;2024-02-16T14:58:43;2.93;;;2.27;;
8086;SDS011;4086;54.412;9.980;2024-02-16T15:01:10;2.10;;;2.00;;
8086;SDS011;4086;54.412;9.980;2024-02-16T15:03:37;2.37;;;2.17;;
8086;SDS011;4086;54.412;9.980;2024-02-16T15:06:03;2.37;;;2.17;;
8086;SDS011;4086;54.412;9.980;2024-02-16T15:08:30;2.33;;;2.10;;
8086;SDS011;4086;54.412;9.980;2024-02-16T15:10:57;2.43;;;2.23;;
8086;SDS011;4086;54.412;9.980;2024-02-16T15:13:24;1.60;;;1.50;;
8086;SDS011;4086;54.412;9.980;2024-02-16T15:15:52;1.70;;;1.60;;